sensor_id;sensor_type;location;lat;lon;timestamp;P1;durP1;ratioP1;P2;durP2;ratioP2
13319;SDS011;59599;47.608;12.190;2022-08-25T04:01:50;4.63;;;4.20;;
13319;SDS011;59599;47.608;12.190;2022-08-25T04:04:17;5.23;;;4.37;;
13319;SDS011;59599;47.608;12.190;2022-08-25T04:06:43;6.27;;;4.50;;
13319;SDS011;59599;47.608;12.190;2022-08-25T04:09:09;4.60;;;4.20;;
13319;SDS011;59599;47.608;12.190;2022-08-25T04:11:35;5.90;;;4.60;;
13319;SDS011;59599;47.608;12.190;2022-08-25T04:14:01;4.93;;;4.50;;
13319;SDS011;59599;47.608;12.190;2022-08-25T04:16:29;5.13;;;4.33;;
13319;SDS011;59599;47.608;12.190;2022-08-25T04:18:56;5.03;;;3.60;;
13319;SDS011;59599;47.608;12.190;2022-08-25T04:21:23;8.27;;;4.60;;
13319;SDS011;59599;47.608;12.190;2022-08-25T04:23:50;4.73;;;3.87;;
13319;SDS011;59599;47.608;12.190;2022-08-25T04:26:18;6.17;;;4.57;;
13319;SDS011;59599;47.608;12.190;2022-08-25T04:28:46;5.10;;;4.70;;
13319;SDS011;59599;47.608;12.190;2022-08-25T04:31:13;5.10;;;4.60;;
13319;SDS011;59599;47.608;12.190;2022-08-25T04:33:40;5.60;;;5.03;;
13319;SDS011;59599;47.608;12.190;2022-08-25T04:36:07;5.57;;;4.53;;
13319;SDS011;59599;47.608;12.190;2022-08-25T04:38:35;5.80;;;4.80;;
13319;SDS011;59599;47.608;12.190;2022-08-25T04:41:02;6.27;;;4.60;;
13319;SDS011;59599;47.608;12.190;2022-08-25T04:43:29;5.20;;;4.37;;
13319;SDS011;59599;47.608;12.190;2022-08-25T04:45:55;5.07;;;4.57;;
13319;SDS011;59599;47.608;12.190;2022-08-25T04:48:21;5.73;;;4.60;;
13319;SDS011;59599;47.608;12.190;2022-08-25T04:50:47;5.07;;;4.57;;
13319;SDS011;59599;47.608;12.190;2022-08-25T04:53:13;5.90;;;4.80;;
13319;SDS011;59599;47.608;12.190;2022-08-25T04:55:40;5.13;;;4.63;;
13319;SDS011;59599;47.608;12.190;2022-08-25T04:58:06;4.57;;;4.17;;
13319;SDS011;59599;47.608;12.190;2022-08-25T05:00:33;5.03;;;4.50;;
13319;SDS011;59599;47.608;12.190;2022-08-25T05:03:00;5.47;;;4.33;;
13319;SDS011;59599;47.608;12.190;2022-08-25T05:05:26;9.00;;;5.00;;
13319;SDS011;59599;47.608;12.190;2022-08-25T05:07:51;4.80;;;4.23;;
13319;SDS011;59599;47.608;12.190;2022-08-25T05:10:18;5.57;;;4.50;;
13319;SDS011;59599;47.608;12.190;2022-08-25T05:12:44;5.07;;;4.67;;
13319;SDS011;59599;47.608;12.190;2022-08-25T05:15:10;8.47;;;4.67;;
13319;SDS011;59599;47.608;12.190;2022-08-25T05:17:55;4.77;;;4.37;;
13319;SDS011;59599;47.608;12.190;2022-08-25T05:20:21;10.40;;;5.07;;
13319;SDS011;59599;47.608;12.190;2022-08-25T05:22:47;6.60;;;4.97;;
13319;SDS011;59599;47.608;12.190;2022-08-25T05:25:13;5.03;;;4.50;;
13319;SDS011;59599;47.608;12.190;2022-08-25T05:27:39;5.10;;;4.60;;
13319;SDS011;59599;47.608;12.190;2022-08-25T05:30:06;7.87;;;5.00;;
13319;SDS011;59599;47.608;12.190;2022-08-25T05:32:34;5.43;;;4.33;;
13319;SDS011;59599;47.608;12.190;2022-08-25T05:34:59;5.87;;;4.30;;
13319;SDS011;59599;47.608;12.190;2022-08-25T05:37:25;8.40;;;4.90;;
13319;SDS011;59599;47.608;12.190;2022-08-25T05:39:51;5.50;;;5.00;;
13319;SDS011;59599;47.608;12.190;2022-08-25T05:42:17;5.30;;;4.80;;
13319;SDS011;59599;47.608;12.190;2022-08-25T05:44:43;6.27;;;5.00;;
13319;SDS011;59599;47.608;12.190;2022-08-25T05:47:09;8.00;;;5.10;;
13319;SDS011;59599;47.608;12.190;2022-08-25T05:49:35;5.43;;;4.93;;
13319;SDS011;59599;47.608;12.190;2022-08-25T05:52:01;5.33;;;4.83;;
13319;SDS011;59599;47.608;12.190;2022-08-25T05:54:26;6.37;;;5.70;;
13319;SDS011;59599;47.608;12.190;2022-08-25T05:56:52;12.83;;;5.73;;
13319;SDS011;59599;47.608;12.190;2022-08-25T05:59:18;8.80;;;5.77;;
13319;SDS011;59599;47.608;12.190;2022-08-25T06:01:44;7.40;;;5.23;;
13319;SDS011;59599;47.608;12.190;2022-08-25T06:04:28;5.90;;;5.23;;
13319;SDS011;59599;47.608;12.190;2022-08-25T06:06:54;7.87;;;6.10;;
13319;SDS011;59599;47.608;12.190;2022-08-25T06:09:20;8.67;;;5.63;;
13319;SDS011;59599;47.608;12.190;2022-08-25T06:11:46;5.03;;;4.30;;
13319;SDS011;59599;47.608;12.190;2022-08-25T06:14:12;12.13;;;5.73;;
13319;SDS011;59599;47.608;12.190;2022-08-25T06:16:39;7.60;;;5.43;;
13319;SDS011;59599;47.608;12.190;2022-08-25T06:19:05;5.30;;;4.80;;
13319;SDS011;59599;47.608;12.190;2022-08-25T06:21:32;7.20;;;5.00;;
13319;SDS011;59599;47.608;12.190;2022-08-25T06:23:58;8.60;;;4.90;;
13319;SDS011;59599;47.608;12.190;2022-08-25T06:26:24;7.20;;;5.63;;
13319;SDS011;59599;47.608;12.190;2022-08-25T06:28:50;6.32;;;4.95;;
13319;SDS011;59599;47.608;12.190;2022-08-25T06:31:16;9.38;;;4.97;;
13319;SDS011;59599;47.608;12.190;2022-08-25T06:33:43;9.50;;;4.80;;
13319;SDS011;59599;47.608;12.190;2022-08-25T06:36:09;6.93;;;4.90;;
13319;SDS011;59599;47.608;12.190;2022-08-25T06:38:34;9.97;;;4.90;;
13319;SDS011;59599;47.608;12.190;2022-08-25T06:41:01;5.03;;;4.30;;
13319;SDS011;59599;47.608;12.190;2022-08-25T06:43:28;5.28;;;3.95;;
13319;SDS011;59599;47.608;12.190;2022-08-25T06:45:53;6.50;;;4.03;;
13319;SDS011;59599;47.608;12.190;2022-08-25T06:48:19;5.15;;;4.43;;
13319;SDS011;59599;47.608;12.190;2022-08-25T06:50:47;4.40;;;4.00;;
13319;SDS011;59599;47.608;12.190;2022-08-25T06:53:13;6.85;;;4.10;;
13319;SDS011;59599;47.608;12.190;2022-08-25T06:55:39;4.72;;;4.30;;
13319;SDS011;59599;47.608;12.190;2022-08-25T06:58:04;4.95;;;4.05;;
13319;SDS011;59599;47.608;12.190;2022-08-25T07:00:30;7.93;;;4.38;;
13319;SDS011;59599;47.608;12.190;2022-08-25T07:02:56;4.72;;;4.25;;
13319;SDS011;59599;47.608;12.190;2022-08-25T07:05:23;5.07;;;3.72;;
13319;SDS011;59599;47.608;12.190;2022-08-25T07:07:48;7.43;;;4.13;;
13319;SDS011;59599;47.608;12.190;2022-08-25T07:10:15;5.00;;;4.50;;
13319;SDS011;59599;47.608;12.190;2022-08-25T07:12:41;5.07;;;3.80;;
13319;SDS011;59599;47.608;12.190;2022-08-25T07:15:07;3.75;;;3.45;;
13319;SDS011;59599;47.608;12.190;2022-08-25T07:17:33;4.05;;;3.65;;
13319;SDS011;59599;47.608;12.190;2022-08-25T07:19:59;4.35;;;3.95;;
13319;SDS011;59599;47.608;12.190;2022-08-25T07:22:24;4.13;;;3.72;;
13319;SDS011;59599;47.608;12.190;2022-08-25T07:24:50;3.72;;;3.40;;
13319;SDS011;59599;47.608;12.190;2022-08-25T07:27:16;5.03;;;4.07;;
13319;SDS011;59599;47.608;12.190;2022-08-25T07:29:42;5.70;;;3.92;;
13319;SDS011;59599;47.608;12.190;2022-08-25T07:32:08;4.78;;;3.60;;
13319;SDS011;59599;47.608;12.190;2022-08-25T07:34:33;5.53;;;3.97;;
13319;SDS011;59599;47.608;12.190;2022-08-25T07:37:17;6.80;;;4.10;;
13319;SDS011;59599;47.608;12.190;2022-08-25T07:39:43;7.38;;;4.20;;
13319;SDS011;59599;47.608;12.190;2022-08-25T07:42:11;4.82;;;3.72;;
13319;SDS011;59599;47.608;12.190;2022-08-25T07:44:37;4.10;;;3.40;;
13319;SDS011;59599;47.608;12.190;2022-08-25T07:47:03;6.35;;;3.75;;
13319;SDS011;59599;47.608;12.190;2022-08-25T07:49:29;4.07;;;3.20;;
13319;SDS011;59599;47.608;12.190;2022-08-25T07:51:55;3.53;;;3.22;;
13319;SDS011;59599;47.608;12.190;2022-08-25T07:54:21;4.57;;;3.03;;
13319;SDS011;59599;47.608;12.190;2022-08-25T07:56:48;3.33;;;3.03;;
13319;SDS011;59599;47.608;12.190;2022-08-25T07:59:14;5.10;;;3.30;;
13319;SDS011;59599;47.608;12.190;2022-08-25T08:01:40;5.25;;;3.30;;
13319;SDS011;59599;47.608;12.190;2022-08-25T08:04:06;5.05;;;3.33;;
13319;SDS011;59599;47.608;12.190;2022-08-25T08:06:32;3.28;;;2.97;;
13319;SDS011;59599;47.608;12.190;2022-08-25T08:08:58;3.95;;;3.42;;
13319;SDS011;59599;47.608;12.190;2022-08-25T08:11:31;5.95;;;3.67;;
13319;SDS011;59599;47.608;12.190;2022-08-25T08:13:58;4.18;;;3.00;;
13319;SDS011;59599;47.608;12.190;2022-08-25T08:16:26;3.10;;;2.88;;
13319;SDS011;59599;47.608;12.190;2022-08-25T08:18:53;5.25;;;3.42;;
13319;SDS011;59599;47.608;12.190;2022-08-25T08:21:24;3.58;;;3.08;;
13319;SDS011;59599;47.608;12.190;2022-08-25T08:23:51;3.33;;;3.03;;
13319;SDS011;59599;47.608;12.190;2022-08-25T08:26:18;3.17;;;2.88;;
13319;SDS011;59599;47.608;12.190;2022-08-25T08:28:44;3.15;;;2.85;;
13319;SDS011;59599;47.608;12.190;2022-08-25T08:31:10;4.38;;;3.10;;
13319;SDS011;59599;47.608;12.190;2022-08-25T08:33:36;4.03;;;3.10;;
13319;SDS011;59599;47.608;12.190;2022-08-25T08:36:03;3.88;;;3.10;;
13319;SDS011;59599;47.608;12.190;2022-08-25T08:38:31;3.70;;;3.10;;
13319;SDS011;59599;47.608;12.190;2022-08-25T08:41:02;9.02;;;3.75;;
13319;SDS011;59599;47.608;12.190;2022-08-25T08:46:44;6.30;;;2.95;;
13319;SDS011;59599;47.608;12.190;2022-08-25T08:49:29;3.00;;;2.70;;
13319;SDS011;59599;47.608;12.190;2022-08-25T08:52:01;4.68;;;3.20;;
13319;SDS011;59599;47.608;12.190;2022-08-25T08:54:30;5.00;;;2.90;;
13319;SDS011;59599;47.608;12.190;2022-08-25T08:57:09;3.10;;;2.70;;
13319;SDS011;59599;47.608;12.190;2022-08-25T08:59:49;4.38;;;3.15;;
13319;SDS011;59599;47.608;12.190;2022-08-25T09:02:31;2.97;;;2.60;;
13319;SDS011;59599;47.608;12.190;2022-08-25T09:05:07;3.25;;;2.95;;
13319;SDS011;59599;47.608;12.190;2022-08-25T09:07:39;3.92;;;2.80;;
13319;SDS011;59599;47.608;12.190;2022-08-25T09:10:12;3.50;;;3.20;;
13319;SDS011;59599;47.608;12.190;2022-08-25T09:15:17;3.17;;;2.85;;
13319;SDS011;59599;47.608;12.190;2022-08-25T09:17:57;5.03;;;2.72;;
13319;SDS011;59599;47.608;12.190;2022-08-25T09:20:40;3.53;;;3.00;;
13319;SDS011;59599;47.608;12.190;2022-08-25T09:25:50;4.05;;;3.10;;
13319;SDS011;59599;47.608;12.190;2022-08-25T09:28:54;3.00;;;2.55;;
13319;SDS011;59599;47.608;12.190;2022-08-25T09:31:44;3.38;;;3.08;;
13319;SDS011;59599;47.608;12.190;2022-08-25T09:34:15;2.65;;;2.45;;
13319;SDS011;59599;47.608;12.190;2022-08-25T09:36:43;3.40;;;2.67;;
13319;SDS011;59599;47.608;12.190;2022-08-25T09:39:12;3.58;;;2.72;;
13319;SDS011;59599;47.608;12.190;2022-08-25T09:44:04;6.22;;;2.63;;
13319;SDS011;59599;47.608;12.190;2022-08-25T09:46:40;3.83;;;2.80;;
13319;SDS011;59599;47.608;12.190;2022-08-25T09:49:30;2.85;;;2.65;;
13319;SDS011;59599;47.608;12.190;2022-08-25T09:54:52;3.30;;;2.70;;
13319;SDS011;59599;47.608;12.190;2022-08-25T09:57:30;6.10;;;3.58;;
13319;SDS011;59599;47.608;12.190;2022-08-25T10:00:19;3.25;;;2.55;;
13319;SDS011;59599;47.608;12.190;2022-08-25T10:05:30;3.15;;;2.53;;
13319;SDS011;59599;47.608;12.190;2022-08-25T10:07:59;2.72;;;2.53;;
13319;SDS011;59599;47.608;12.190;2022-08-25T10:12:57;4.97;;;2.67;;
13319;SDS011;59599;47.608;12.190;2022-08-25T10:17:50;4.57;;;2.40;;
13319;SDS011;59599;47.608;12.190;2022-08-25T10:20:18;3.92;;;2.75;;
13319;SDS011;59599;47.608;12.190;2022-08-25T10:22:49;8.57;;;2.75;;
13319;SDS011;59599;47.608;12.190;2022-08-25T10:25:18;4.38;;;2.33;;
13319;SDS011;59599;47.608;12.190;2022-08-25T10:34:02;6.70;;;2.65;;
13319;SDS011;59599;47.608;12.190;2022-08-25T10:39:28;5.20;;;2.63;;
13319;SDS011;59599;47.608;12.190;2022-08-25T10:49:53;2.67;;;2.40;;
13319;SDS011;59599;47.608;12.190;2022-08-25T10:52:30;5.00;;;2.72;;
13319;SDS011;59599;47.608;12.190;2022-08-25T10:55:24;4.05;;;2.60;;
13319;SDS011;59599;47.608;12.190;2022-08-25T10:57:55;2.92;;;2.55;;
13319;SDS011;59599;47.608;12.190;2022-08-25T11:00:29;5.32;;;2.83;;
13319;SDS011;59599;47.608;12.190;2022-08-25T11:05:50;4.20;;;2.72;;
13319;SDS011;59599;47.608;12.190;2022-08-25T11:10:52;3.75;;;3.10;;
13319;SDS011;59599;47.608;12.190;2022-08-25T11:13:58;4.13;;;3.53;;
13319;SDS011;59599;47.608;12.190;2022-08-25T11:16:39;3.38;;;3.05;;
13319;SDS011;59599;47.608;12.190;2022-08-25T11:21:55;3.38;;;3.08;;
13319;SDS011;59599;47.608;12.190;2022-08-25T11:27:48;4.57;;;2.90;;
13319;SDS011;59599;47.608;12.190;2022-08-25T11:30:22;4.93;;;3.20;;
13319;SDS011;59599;47.608;12.190;2022-08-25T11:32:49;5.18;;;2.92;;
13319;SDS011;59599;47.608;12.190;2022-08-25T11:35:18;3.17;;;2.88;;
13319;SDS011;59599;47.608;12.190;2022-08-25T11:43:54;6.45;;;2.90;;
13319;SDS011;59599;47.608;12.190;2022-08-25T11:49:30;5.75;;;3.45;;
13319;SDS011;59599;47.608;12.190;2022-08-25T11:52:01;4.70;;;2.85;;
13319;SDS011;59599;47.608;12.190;2022-08-25T11:54:36;3.28;;;2.90;;
13319;SDS011;59599;47.608;12.190;2022-08-25T11:57:08;4.90;;;2.70;;
13319;SDS011;59599;47.608;12.190;2022-08-25T12:02:36;5.20;;;2.90;;
13319;SDS011;59599;47.608;12.190;2022-08-25T12:05:06;4.70;;;3.10;;
13319;SDS011;59599;47.608;12.190;2022-08-25T12:13:23;6.50;;;3.13;;
13319;SDS011;59599;47.608;12.190;2022-08-25T12:21:08;3.10;;;2.80;;
13319;SDS011;59599;47.608;12.190;2022-08-25T12:23:35;2.88;;;2.67;;
13319;SDS011;59599;47.608;12.190;2022-08-25T12:26:03;4.38;;;2.58;;
13319;SDS011;59599;47.608;12.190;2022-08-25T12:28:54;4.13;;;3.10;;
13319;SDS011;59599;47.608;12.190;2022-08-25T12:31:43;3.17;;;2.80;;
13319;SDS011;59599;47.608;12.190;2022-08-25T12:37:14;3.13;;;2.80;;
13319;SDS011;59599;47.608;12.190;2022-08-25T12:39:43;2.85;;;2.60;;
13319;SDS011;59599;47.608;12.190;2022-08-25T12:42:35;7.03;;;3.20;;
13319;SDS011;59599;47.608;12.190;2022-08-25T12:47:48;2.70;;;2.50;;
13319;SDS011;59599;47.608;12.190;2022-08-25T12:53:07;3.70;;;2.63;;
13319;SDS011;59599;47.608;12.190;2022-08-25T12:55:50;2.88;;;2.60;;
13319;SDS011;59599;47.608;12.190;2022-08-25T12:58:20;3.00;;;2.78;;
13319;SDS011;59599;47.608;12.190;2022-08-25T13:03:20;3.05;;;2.75;;
13319;SDS011;59599;47.608;12.190;2022-08-25T13:11:30;3.78;;;2.50;;
13319;SDS011;59599;47.608;12.190;2022-08-25T13:14:10;3.75;;;2.50;;
13319;SDS011;59599;47.608;12.190;2022-08-25T13:16:53;3.80;;;2.78;;
13319;SDS011;59599;47.608;12.190;2022-08-25T13:19:21;5.00;;;2.30;;
13319;SDS011;59599;47.608;12.190;2022-08-25T13:21:47;6.97;;;2.60;;
13319;SDS011;59599;47.608;12.190;2022-08-25T13:24:17;2.78;;;2.40;;
13319;SDS011;59599;47.608;12.190;2022-08-25T13:26:52;3.97;;;2.47;;
13319;SDS011;59599;47.608;12.190;2022-08-25T13:29:24;4.28;;;2.95;;
13319;SDS011;59599;47.608;12.190;2022-08-25T13:31:53;4.85;;;2.75;;
13319;SDS011;59599;47.608;12.190;2022-08-25T13:34:23;4.00;;;2.47;;
13319;SDS011;59599;47.608;12.190;2022-08-25T13:36:51;3.13;;;2.30;;
13319;SDS011;59599;47.608;12.190;2022-08-25T13:39:35;2.90;;;2.50;;
13319;SDS011;59599;47.608;12.190;2022-08-25T13:42:03;3.13;;;2.75;;
13319;SDS011;59599;47.608;12.190;2022-08-25T13:44:34;2.97;;;2.78;;
13319;SDS011;59599;47.608;12.190;2022-08-25T13:47:10;8.88;;;2.97;;
13319;SDS011;59599;47.608;12.190;2022-08-25T13:49:38;3.70;;;2.42;;
13319;SDS011;59599;47.608;12.190;2022-08-25T13:52:06;2.70;;;2.50;;
13319;SDS011;59599;47.608;12.190;2022-08-25T13:54:37;2.72;;;2.53;;
13319;SDS011;59599;47.608;12.190;2022-08-25T13:59:48;4.40;;;2.95;;
13319;SDS011;59599;47.608;12.190;2022-08-25T14:02:37;4.93;;;2.90;;
13319;SDS011;59599;47.608;12.190;2022-08-25T14:05:12;7.03;;;3.42;;
13319;SDS011;59599;47.608;12.190;2022-08-25T14:07:50;3.38;;;3.00;;
13319;SDS011;59599;47.608;12.190;2022-08-25T14:13:12;5.85;;;3.42;;
13319;SDS011;59599;47.608;12.190;2022-08-25T14:15:53;5.57;;;3.47;;
13319;SDS011;59599;47.608;12.190;2022-08-25T14:18:20;6.38;;;3.53;;
13319;SDS011;59599;47.608;12.190;2022-08-25T14:20:53;4.28;;;3.10;;
13319;SDS011;59599;47.608;12.190;2022-08-25T14:23:22;5.45;;;3.53;;
13319;SDS011;59599;47.608;12.190;2022-08-25T14:25:51;5.13;;;3.75;;
13319;SDS011;59599;47.608;12.190;2022-08-25T14:28:19;7.75;;;4.18;;
13319;SDS011;59599;47.608;12.190;2022-08-25T14:30:48;6.68;;;3.67;;
13319;SDS011;59599;47.608;12.190;2022-08-25T14:33:20;6.60;;;3.90;;
13319;SDS011;59599;47.608;12.190;2022-08-25T14:35:52;7.75;;;3.92;;
13319;SDS011;59599;47.608;12.190;2022-08-25T14:38:19;6.60;;;3.40;;
13319;SDS011;59599;47.608;12.190;2022-08-25T14:40:47;6.82;;;4.15;;
13319;SDS011;59599;47.608;12.190;2022-08-25T14:43:13;6.55;;;4.13;;
13319;SDS011;59599;47.608;12.190;2022-08-25T14:45:40;5.18;;;3.63;;
13319;SDS011;59599;47.608;12.190;2022-08-25T14:48:08;8.77;;;4.10;;
13319;SDS011;59599;47.608;12.190;2022-08-25T14:50:39;6.90;;;3.88;;
13319;SDS011;59599;47.608;12.190;2022-08-25T14:53:05;6.40;;;3.88;;
13319;SDS011;59599;47.608;12.190;2022-08-25T14:55:31;6.50;;;3.80;;
13319;SDS011;59599;47.608;12.190;2022-08-25T14:57:57;7.13;;;3.95;;
13319;SDS011;59599;47.608;12.190;2022-08-25T15:00:23;12.57;;;4.10;;
13319;SDS011;59599;47.608;12.190;2022-08-25T15:02:49;8.05;;;4.13;;
13319;SDS011;59599;47.608;12.190;2022-08-25T15:05:16;6.50;;;4.05;;
13319;SDS011;59599;47.608;12.190;2022-08-25T15:07:48;9.10;;;3.58;;
13319;SDS011;59599;47.608;12.190;2022-08-25T15:10:32;8.00;;;3.85;;
13319;SDS011;59599;47.608;12.190;2022-08-25T15:12:58;8.48;;;4.20;;
13319;SDS011;59599;47.608;12.190;2022-08-25T15:15:24;8.50;;;3.75;;
13319;SDS011;59599;47.608;12.190;2022-08-25T15:17:52;7.47;;;3.63;;
13319;SDS011;59599;47.608;12.190;2022-08-25T15:20:18;7.80;;;3.88;;
13319;SDS011;59599;47.608;12.190;2022-08-25T15:22:44;9.45;;;3.75;;
13319;SDS011;59599;47.608;12.190;2022-08-25T15:25:11;8.77;;;4.00;;
13319;SDS011;59599;47.608;12.190;2022-08-25T15:27:38;11.65;;;3.60;;
13319;SDS011;59599;47.608;12.190;2022-08-25T15:30:04;5.65;;;3.80;;
13319;SDS011;59599;47.608;12.190;2022-08-25T15:32:30;10.55;;;4.07;;
13319;SDS011;59599;47.608;12.190;2022-08-25T15:34:56;8.23;;;4.07;;
13319;SDS011;59599;47.608;12.190;2022-08-25T15:37:21;7.25;;;4.03;;
13319;SDS011;59599;47.608;12.190;2022-08-25T15:39:47;10.40;;;3.80;;
13319;SDS011;59599;47.608;12.190;2022-08-25T15:42:13;9.73;;;3.95;;
13319;SDS011;59599;47.608;12.190;2022-08-25T15:44:40;13.88;;;4.28;;
13319;SDS011;59599;47.608;12.190;2022-08-25T15:47:06;7.38;;;3.80;;
13319;SDS011;59599;47.608;12.190;2022-08-25T15:49:32;7.78;;;3.35;;
13319;SDS011;59599;47.608;12.190;2022-08-25T15:51:58;11.30;;;4.38;;
13319;SDS011;59599;47.608;12.190;2022-08-25T15:54:24;7.15;;;3.45;;
13319;SDS011;59599;47.608;12.190;2022-08-25T15:56:51;4.43;;;3.50;;
13319;SDS011;59599;47.608;12.190;2022-08-25T15:59:17;11.82;;;4.13;;
13319;SDS011;59599;47.608;12.190;2022-08-25T16:01:43;10.73;;;4.00;;
13319;SDS011;59599;47.608;12.190;2022-08-25T16:04:09;11.30;;;4.10;;
13319;SDS011;59599;47.608;12.190;2022-08-25T16:06:35;9.38;;;4.15;;
13319;SDS011;59599;47.608;12.190;2022-08-25T16:09:02;8.88;;;4.05;;
13319;SDS011;59599;47.608;12.190;2022-08-25T16:11:29;8.32;;;3.65;;
13319;SDS011;59599;47.608;12.190;2022-08-25T16:13:57;9.32;;;3.92;;
13319;SDS011;59599;47.608;12.190;2022-08-25T16:16:25;6.00;;;3.88;;
13319;SDS011;59599;47.608;12.190;2022-08-25T16:18:53;10.73;;;4.68;;
13319;SDS011;59599;47.608;12.190;2022-08-25T16:21:21;12.82;;;4.45;;
13319;SDS011;59599;47.608;12.190;2022-08-25T16:23:51;7.82;;;4.25;;
13319;SDS011;59599;47.608;12.190;2022-08-25T16:26:18;6.93;;;3.83;;
13319;SDS011;59599;47.608;12.190;2022-08-25T16:28:43;9.70;;;4.43;;
13319;SDS011;59599;47.608;12.190;2022-08-25T16:31:10;14.15;;;5.38;;
13319;SDS011;59599;47.608;12.190;2022-08-25T16:33:37;9.18;;;5.00;;
13319;SDS011;59599;47.608;12.190;2022-08-25T16:36:10;11.15;;;4.97;;
13319;SDS011;59599;47.608;12.190;2022-08-25T16:38:41;8.68;;;4.85;;
13319;SDS011;59599;47.608;12.190;2022-08-25T16:41:08;12.95;;;4.75;;
13319;SDS011;59599;47.608;12.190;2022-08-25T16:43:37;10.25;;;4.97;;
13319;SDS011;59599;47.608;12.190;2022-08-25T16:46:04;9.82;;;5.00;;
13319;SDS011;59599;47.608;12.190;2022-08-25T16:48:31;9.65;;;5.30;;
13319;SDS011;59599;47.608;12.190;2022-08-25T16:50:57;11.30;;;5.85;;
13319;SDS011;59599;47.608;12.190;2022-08-25T16:53:24;13.20;;;5.60;;
13319;SDS011;59599;47.608;12.190;2022-08-25T16:56:08;11.63;;;6.20;;
13319;SDS011;59599;47.608;12.190;2022-08-25T16:58:35;11.15;;;5.88;;
13319;SDS011;59599;47.608;12.190;2022-08-25T17:01:09;16.58;;;5.78;;
13319;SDS011;59599;47.608;12.190;2022-08-25T17:03:36;14.70;;;5.72;;
13319;SDS011;59599;47.608;12.190;2022-08-25T17:06:04;16.35;;;6.13;;
13319;SDS011;59599;47.608;12.190;2022-08-25T17:08:30;13.57;;;5.65;;
13319;SDS011;59599;47.608;12.190;2022-08-25T17:11:05;14.02;;;5.43;;
13319;SDS011;59599;47.608;12.190;2022-08-25T17:13:36;17.42;;;5.20;;
13319;SDS011;59599;47.608;12.190;2022-08-25T17:16:03;11.63;;;5.65;;
13319;SDS011;59599;47.608;12.190;2022-08-25T17:18:30;11.77;;;5.60;;
13319;SDS011;59599;47.608;12.190;2022-08-25T17:20:57;14.65;;;5.95;;
13319;SDS011;59599;47.608;12.190;2022-08-25T17:23:30;9.35;;;6.07;;
13319;SDS011;59599;47.608;12.190;2022-08-25T17:25:57;12.05;;;5.72;;
13319;SDS011;59599;47.608;12.190;2022-08-25T17:28:23;13.63;;;6.15;;
13319;SDS011;59599;47.608;12.190;2022-08-25T17:30:49;13.50;;;5.95;;
13319;SDS011;59599;47.608;12.190;2022-08-25T17:33:16;11.52;;;6.97;;
13319;SDS011;59599;47.608;12.190;2022-08-25T17:35:42;16.48;;;6.45;;
13319;SDS011;59599;47.608;12.190;2022-08-25T17:38:10;9.88;;;5.97;;
13319;SDS011;59599;47.608;12.190;2022-08-25T17:40:36;13.60;;;6.05;;
13319;SDS011;59599;47.608;12.190;2022-08-25T17:43:02;17.92;;;6.68;;
13319;SDS011;59599;47.608;12.190;2022-08-25T17:45:29;15.60;;;7.13;;
13319;SDS011;59599;47.608;12.190;2022-08-25T17:47:55;13.38;;;6.82;;
13319;SDS011;59599;47.608;12.190;2022-08-25T17:50:22;15.65;;;6.93;;
13319;SDS011;59599;47.608;12.190;2022-08-25T17:52:49;13.10;;;6.97;;
13319;SDS011;59599;47.608;12.190;2022-08-25T17:55:15;13.73;;;6.72;;
13319;SDS011;59599;47.608;12.190;2022-08-25T17:57:45;11.30;;;6.32;;
13319;SDS011;59599;47.608;12.190;2022-08-25T18:00:11;14.40;;;6.95;;
13319;SDS011;59599;47.608;12.190;2022-08-25T18:02:38;14.88;;;6.07;;
13319;SDS011;59599;47.608;12.190;2022-08-25T18:05:04;13.52;;;6.43;;
13319;SDS011;59599;47.608;12.190;2022-08-25T18:07:30;15.35;;;6.60;;
13319;SDS011;59599;47.608;12.190;2022-08-25T18:09:56;14.13;;;6.50;;
13319;SDS011;59599;47.608;12.190;2022-08-25T18:12:22;16.80;;;7.28;;
13319;SDS011;59599;47.608;12.190;2022-08-25T18:14:48;11.80;;;6.30;;
13319;SDS011;59599;47.608;12.190;2022-08-25T18:17:14;14.30;;;6.97;;
13319;SDS011;59599;47.608;12.190;2022-08-25T18:19:40;15.57;;;7.10;;
13319;SDS011;59599;47.608;12.190;2022-08-25T18:22:07;15.77;;;7.00;;
13319;SDS011;59599;47.608;12.190;2022-08-25T18:24:33;14.82;;;6.95;;
13319;SDS011;59599;47.608;12.190;2022-08-25T18:26:59;14.38;;;7.50;;
13319;SDS011;59599;47.608;12.190;2022-08-25T18:29:25;19.38;;;6.88;;
13319;SDS011;59599;47.608;12.190;2022-08-25T18:31:52;14.45;;;6.38;;
13319;SDS011;59599;47.608;12.190;2022-08-25T18:34:18;11.65;;;6.93;;
13319;SDS011;59599;47.608;12.190;2022-08-25T18:36:43;12.10;;;7.10;;
13319;SDS011;59599;47.608;12.190;2022-08-25T18:39:09;16.45;;;7.15;;
13319;SDS011;59599;47.608;12.190;2022-08-25T18:41:54;11.63;;;6.38;;
13319;SDS011;59599;47.608;12.190;2022-08-25T18:44:19;10.57;;;6.63;;
13319;SDS011;59599;47.608;12.190;2022-08-25T18:46:45;10.50;;;6.30;;
13319;SDS011;59599;47.608;12.190;2022-08-25T18:49:11;14.13;;;6.85;;
13319;SDS011;59599;47.608;12.190;2022-08-25T18:51:39;15.10;;;7.03;;
13319;SDS011;59599;47.608;12.190;2022-08-25T18:54:05;14.10;;;6.93;;
13319;SDS011;59599;47.608;12.190;2022-08-25T18:56:32;11.55;;;7.68;;
13319;SDS011;59599;47.608;12.190;2022-08-25T18:58:58;12.00;;;7.32;;
13319;SDS011;59599;47.608;12.190;2022-08-25T19:01:24;16.55;;;8.10;;
13319;SDS011;59599;47.608;12.190;2022-08-25T19:03:49;14.18;;;7.20;;
13319;SDS011;59599;47.608;12.190;2022-08-25T19:06:15;10.18;;;7.03;;
13319;SDS011;59599;47.608;12.190;2022-08-25T19:08:42;12.90;;;7.10;;
13319;SDS011;59599;47.608;12.190;2022-08-25T19:11:09;13.02;;;6.68;;
13319;SDS011;59599;47.608;12.190;2022-08-25T19:13:35;14.55;;;6.72;;
13319;SDS011;59599;47.608;12.190;2022-08-25T19:16:11;15.65;;;7.30;;
13319;SDS011;59599;47.608;12.190;2022-08-25T19:18:38;15.18;;;7.15;;
13319;SDS011;59599;47.608;12.190;2022-08-25T19:21:05;14.85;;;7.63;;
13319;SDS011;59599;47.608;12.190;2022-08-25T19:23:31;12.75;;;6.72;;
13319;SDS011;59599;47.608;12.190;2022-08-25T19:25:57;13.48;;;6.90;;
13319;SDS011;59599;47.608;12.190;2022-08-25T19:28:23;11.02;;;6.53;;
13319;SDS011;59599;47.608;12.190;2022-08-25T19:30:49;12.93;;;6.10;;
13319;SDS011;59599;47.608;12.190;2022-08-25T19:33:15;11.48;;;6.38;;
13319;SDS011;59599;47.608;12.190;2022-08-25T19:35:45;10.70;;;6.45;;
13319;SDS011;59599;47.608;12.190;2022-08-25T19:38:16;14.45;;;6.72;;
13319;SDS011;59599;47.608;12.190;2022-08-25T19:40:45;10.50;;;6.50;;
13319;SDS011;59599;47.608;12.190;2022-08-25T19:43:12;11.35;;;6.75;;
13319;SDS011;59599;47.608;12.190;2022-08-25T19:45:38;13.93;;;6.88;;
13319;SDS011;59599;47.608;12.190;2022-08-25T19:48:05;12.95;;;6.88;;
13319;SDS011;59599;47.608;12.190;2022-08-25T19:50:32;15.25;;;7.93;;
13319;SDS011;59599;47.608;12.190;2022-08-25T19:52:58;13.75;;;7.45;;
13319;SDS011;59599;47.608;12.190;2022-08-25T19:55:24;12.88;;;7.57;;
13319;SDS011;59599;47.608;12.190;2022-08-25T19:57:50;15.60;;;7.70;;
13319;SDS011;59599;47.608;12.190;2022-08-25T20:00:17;13.60;;;6.68;;
13319;SDS011;59599;47.608;12.190;2022-08-25T20:02:48;10.52;;;6.50;;
13319;SDS011;59599;47.608;12.190;2022-08-25T20:05:15;10.55;;;5.93;;
13319;SDS011;59599;47.608;12.190;2022-08-25T20:07:43;7.97;;;5.90;;
13319;SDS011;59599;47.608;12.190;2022-08-25T20:10:10;9.00;;;5.93;;
13319;SDS011;59599;47.608;12.190;2022-08-25T20:12:37;11.18;;;6.28;;
13319;SDS011;59599;47.608;12.190;2022-08-25T20:15:04;10.07;;;6.22;;
13319;SDS011;59599;47.608;12.190;2022-08-25T20:17:31;9.65;;;6.07;;